TimeMDT,TemperatureF,Dew PointF,Humidity,Sea Level PressureIn,VisibilityMPH,Wind Direction,Wind SpeedMPH,Gust SpeedMPH,PrecipitationIn,Events,Conditions,WindDirDegrees,DateUTC
12:48 AM,37.0,25.0,62,30.41,-9999.0,NNW,6.9,-,N/A,,Unknown,330,2013-10-15 06:48:00
1:48 AM,32.0,25.0,75,30.42,-9999.0,Calm,Calm,-,N/A,,Unknown,0,2013-10-15 07:48:00
2:48 AM,28.9,24.1,82,30.42,-9999.0,West,5.8,-,N/A,,Unknown,280,2013-10-15 08:48:00
3:48 AM,26.1,23.0,88,30.41,-9999.0,WNW,4.6,-,N/A,,Unknown,290,2013-10-15 09:48:00
4:48 AM,26.1,23.0,88,30.41,-9999.0,WNW,4.6,-,N/A,,Unknown,290,2013-10-15 10:48:00
5:48 AM,27.0,23.0,85,30.41,-9999.0,West,4.6,-,N/A,,Unknown,280,2013-10-15 11:48:00
6:48 AM,26.1,23.0,88,30.41,-9999.0,West,4.6,-,N/A,,Unknown,280,2013-10-15 12:48:00
7:48 AM,26.1,23.0,88,30.41,-9999.0,West,3.5,-,N/A,,Unknown,280,2013-10-15 13:48:00
8:48 AM,30.9,26.1,82,30.41,-9999.0,WSW,3.5,-,N/A,,Unknown,250,2013-10-15 14:48:00
9:48 AM,39.0,28.9,67,30.38,-9999.0,West,5.8,-,N/A,,Unknown,270,2013-10-15 15:48:00
10:48 AM,46.0,30.9,56,30.35,-9999.0,West,8.1,-,N/A,,Unknown,260,2013-10-15 16:48:00
11:48 AM,50.0,28.9,44,30.32,-9999.0,Variable,5.8,-,N/A,,Unknown,0,2013-10-15 17:48:00
12:48 PM,52.0,26.1,37,30.29,-9999.0,SW,8.1,-,N/A,,Unknown,230,2013-10-15 18:48:00
1:48 PM,53.1,25.0,34,30.26,-9999.0,WSW,10.4,-,N/A,,Unknown,250,2013-10-15 19:48:00
2:48 PM,54.0,26.1,34,30.23,-9999.0,SW,15.0,-,N/A,,Unknown,230,2013-10-15 20:48:00
3:48 PM,55.0,25.0,31,30.21,-9999.0,WSW,11.5,-,N/A,,Unknown,250,2013-10-15 21:48:00
4:48 PM,54.0,26.1,34,30.19,-9999.0,SW,12.7,-,N/A,,Unknown,230,2013-10-15 22:48:00
5:48 PM,51.1,27.0,39,30.18,-9999.0,SW,10.4,-,N/A,,Unknown,220,2013-10-15 23:48:00
6:48 PM,41.0,27.0,57,30.19,-9999.0,SSW,5.8,-,N/A,,Unknown,210,2013-10-16 00:48:00
7:48 PM,39.0,27.0,62,30.18,-9999.0,Calm,Calm,-,N/A,,Unknown,0,2013-10-16 01:48:00
8:48 PM,39.0,28.9,67,30.16,-9999.0,WSW,4.6,-,N/A,,Unknown,250,2013-10-16 02:48:00
9:48 PM,34.0,28.0,79,30.13,-9999.0,Calm,Calm,-,N/A,,Unknown,0,2013-10-16 03:48:00
10:48 PM,28.9,26.1,89,30.12,-9999.0,West,4.6,-,N/A,,Unknown,280,2013-10-16 04:48:00
11:48 PM,28.0,25.0,88,30.10,-9999.0,WNW,4.6,-,N/A,,Unknown,290,2013-10-16 05:48:00